Terminal Aerodrome Forecast
Issued by NWS

Home | Current Version | Previous Version | Text Only | Print | Product List | Glossary On
Versions: 1 2 3 4 5 6 7 8 9 10 11 12 13 14 15 16 17 18 19 20
775
FTUS43 KEAX 190635 AAA
TAFSTJ
TAF AMD
KSTJ 190635Z 1907/2006 VRB03KT 4SM BR FEW001
      TEMPO 1907/1909 2SM BR BKN001
     FM190900 00000KT 2SM BR SCT001
      TEMPO 1909/1913 1/2SM FG BKN001
     FM191300 14005KT P6SM FEW250=

USA.gov is the U.S. government's official web portal to all federal, state and local government web resources and services.